Time;durP1;ratioP1;P1;durP2;ratioP2;P2;SDS_P1;SDS_P2;PMS_P1;PMS_P2;Temp;Humidity;BMP_temperature;BMP_pressure;BME280_temperature;BME280_humidity;BME280_pressure;Samples;Min_cycle;Max_cycle;Signal;HPM_P1;HPM_P2
2021/08/11 00:00:58;;;;;;;5.47;2.17;;;20.00;82.90;;;;;;5053041;28;20028;-68
2021/08/11 00:03:23;;;;;;;5.10;1.98;;;20.00;82.90;;;;;;5070926;28;20514;-68
2021/08/11 00:05:49;;;;;;;5.70;2.15;;;20.00;82.90;;;;;;5070115;28;20028;-68
2021/08/11 00:08:14;;;;;;;6.82;2.20;;;20.00;82.90;;;;;;5070851;28;20036;-69
2021/08/11 00:10:40;;;;;;;6.75;2.30;;;20.00;83.00;;;;;;5070730;28;20074;-69
2021/08/11 00:13:06;;;;;;;4.93;2.33;;;20.00;82.90;;;;;;5070677;28;20103;-69
2021/08/11 00:15:32;;;;;;;5.93;2.40;;;20.00;82.90;;;;;;5052300;28;20392;-67
2021/08/11 00:17:57;;;;;;;6.43;2.50;;;20.00;83.00;;;;;;5052534;28;20048;-69
2021/08/11 00:20:24;;;;;;;6.03;2.20;;;20.00;83.10;;;;;;5070249;28;20512;-69
2021/08/11 00:22:51;;;;;;;4.70;1.83;;;20.00;83.10;;;;;;5047199;28;20029;-69
2021/08/11 00:25:16;;;;;;;4.80;2.25;;;20.00;82.90;;;;;;5038517;28;20021;-69
2021/08/11 00:27:42;;;;;;;5.07;2.10;;;20.00;83.00;;;;;;5047290;28;20047;-68
2021/08/11 00:30:08;;;;;;;6.03;2.47;;;20.00;82.90;;;;;;5071143;28;20021;-69
2021/08/11 00:32:33;;;;;;;4.85;2.20;;;20.00;83.00;;;;;;5070950;28;20034;-69
2021/08/11 00:34:59;;;;;;;4.35;2.15;;;19.90;83.00;;;;;;5052357;28;20100;-70
2021/08/11 00:37:25;;;;;;;5.43;2.38;;;20.00;83.00;;;;;;5067323;28;20025;-68
2021/08/11 00:39:50;;;;;;;5.88;2.58;;;20.00;83.00;;;;;;5052519;28;20017;-69
2021/08/11 00:42:16;;;;;;;6.15;2.53;;;20.00;82.90;;;;;;5065446;28;20028;-68
2021/08/11 00:44:41;;;;;;;6.60;2.33;;;20.00;83.00;;;;;;5050540;28;20035;-69
2021/08/11 00:47:07;;;;;;;4.55;2.00;;;20.00;83.10;;;;;;5050520;28;20160;-69
2021/08/11 00:49:33;;;;;;;7.50;2.92;;;20.00;83.10;;;;;;5052328;28;20029;-68
2021/08/11 00:51:58;;;;;;;5.40;2.42;;;20.00;83.00;;;;;;5044380;28;20040;-68
2021/08/11 00:54:25;;;;;;;6.43;2.60;;;19.90;83.10;;;;;;5074551;28;20028;-68
2021/08/11 00:56:54;;;;;;;5.30;2.08;;;19.90;83.00;;;;;;5054034;28;20508;-68
2021/08/11 00:59:21;;;;;;;8.68;2.60;;;19.90;83.10;;;;;;5074652;28;20089;-69
2021/08/11 01:01:50;;;;;;;5.03;2.50;;;19.90;83.10;;;;;;5051838;28;20033;-69
2021/08/11 01:04:17;;;;;;;5.47;2.35;;;19.90;83.10;;;;;;5056038;28;20024;-70
2021/08/11 01:06:44;;;;;;;4.70;2.30;;;19.90;83.10;;;;;;5074227;28;20378;-69
2021/08/11 01:09:13;;;;;;;8.82;2.83;;;19.90;83.20;;;;;;5064757;28;20573;-69
2021/08/11 01:11:42;;;;;;;6.47;2.15;;;19.90;83.10;;;;;;5055770;28;20048;-68
2021/08/11 01:14:08;;;;;;;5.93;2.13;;;19.90;83.10;;;;;;5056229;28;20025;-69
2021/08/11 01:16:33;;;;;;;4.78;2.13;;;19.90;83.20;;;;;;5054245;28;20103;-70
2021/08/11 01:18:59;;;;;;;6.47;2.50;;;19.90;83.20;;;;;;5060583;28;20033;-69
2021/08/11 01:21:37;;;;;;;5.28;2.38;;;19.90;83.20;;;;;;5049406;28;20012;-69
2021/08/11 01:24:59;;;;;;;4.65;2.20;;;19.90;83.30;;;;;;5075919;28;20020;-69
2021/08/11 01:27:49;;;;;;;5.38;2.15;;;19.90;83.30;;;;;;5001540;28;20034;-68
2021/08/11 01:30:27;;;;;;;5.20;2.20;;;19.90;83.40;;;;;;4992357;28;20026;-68
2021/08/11 01:33:14;;;;;;;4.68;2.35;;;19.90;83.40;;;;;;5054883;28;20380;-68
2021/08/11 01:35:49;;;;;;;6.88;2.40;;;19.90;83.50;;;;;;5056756;28;20047;-68
2021/08/11 01:38:19;;;;;;;4.75;2.00;;;19.90;83.50;;;;;;5073757;28;20016;-68
2021/08/11 01:40:54;;;;;;;4.97;2.28;;;19.80;83.40;;;;;;5073556;28;20518;-68
2021/08/11 01:43:24;;;;;;;4.78;2.08;;;19.90;83.50;;;;;;5072831;28;20640;-68
2021/08/11 01:45:50;;;;;;;4.18;2.03;;;19.80;83.70;;;;;;5073197;28;20032;-69
2021/08/11 01:48:25;;;;;;;5.88;2.25;;;19.80;83.60;;;;;;5073059;28;20541;-68
2021/08/11 01:50:52;;;;;;;5.43;2.33;;;19.80;83.50;;;;;;5073668;28;20040;-68
2021/08/11 01:53:19;;;;;;;5.45;2.22;;;19.80;83.40;;;;;;5073226;28;20071;-70
2021/08/11 01:55:52;;;;;;;4.88;2.22;;;19.80;83.40;;;;;;5038704;28;20074;-68
2021/08/11 01:58:23;;;;;;;4.40;1.95;;;19.80;83.40;;;;;;5041652;28;20035;-68
2021/08/11 02:00:50;;;;;;;6.72;2.20;;;19.80;83.40;;;;;;5073438;28;20036;-68
2021/08/11 02:03:20;;;;;;;5.53;2.60;;;19.80;83.40;;;;;;5074151;28;20082;-68
2021/08/11 02:05:45;;;;;;;7.75;2.60;;;19.80;83.40;;;;;;5074771;28;20514;-67
2021/08/11 02:08:13;;;;;;;4.72;2.30;;;19.80;83.40;;;;;;5064097;28;20025;-68
2021/08/11 02:10:39;;;;;;;5.60;2.78;;;19.80;83.40;;;;;;5045844;28;20061;-68
2021/08/11 02:13:05;;;;;;;6.93;3.05;;;19.80;83.40;;;;;;5055208;28;20021;-68
2021/08/11 02:15:31;;;;;;;3.85;1.95;;;19.80;83.40;;;;;;5057334;28;20482;-68
2021/08/11 02:17:56;;;;;;;5.45;2.40;;;19.80;83.40;;;;;;5092173;28;20058;-67
2021/08/11 02:20:22;;;;;;;5.28;2.20;;;19.80;83.40;;;;;;5093318;28;20024;-68
2021/08/11 02:22:47;;;;;;;4.65;2.10;;;19.80;83.50;;;;;;5071968;28;20077;-68
2021/08/11 02:25:14;;;;;;;4.80;2.30;;;19.80;83.70;;;;;;5072430;28;20044;-68
2021/08/11 02:27:48;;;;;;;6.80;2.45;;;19.70;83.50;;;;;;5071427;28;20389;-68
2021/08/11 02:30:16;;;;;;;5.90;3.00;;;19.70;83.50;;;;;;5072293;28;20028;-69
2021/08/11 02:32:52;;;;;;;6.90;2.45;;;19.70;83.40;;;;;;5052775;28;20032;-68
2021/08/11 02:35:34;;;;;;;8.23;2.65;;;19.70;83.50;;;;;;5061633;28;20032;-69
2021/08/11 02:38:29;;;;;;;5.78;2.20;;;19.70;83.50;;;;;;5052360;28;20017;-68
2021/08/11 02:41:04;;;;;;;8.10;2.72;;;19.70;83.50;;;;;;5031244;28;20020;-69
2021/08/11 02:43:58;;;;;;;5.93;3.35;;;19.70;83.50;;;;;;5046194;28;20035;-68
2021/08/11 02:46:27;;;;;;;6.35;2.58;;;19.70;83.50;;;;;;5070589;28;20103;-68
2021/08/11 02:49:02;;;;;;;6.57;2.70;;;19.70;83.50;;;;;;5071658;28;20024;-69
2021/08/11 02:51:31;;;;;;;4.72;2.47;;;19.70;83.60;;;;;;5054434;28;20452;-69
2021/08/11 02:54:01;;;;;;;6.07;3.00;;;19.70;83.60;;;;;;5057804;28;20024;-68
2021/08/11 02:56:27;;;;;;;5.38;2.35;;;19.70;83.60;;;;;;5051544;28;20025;-68
2021/08/11 02:58:53;;;;;;;4.90;2.47;;;19.70;83.60;;;;;;5035247;28;20379;-68
2021/08/11 03:01:20;;;;;;;5.93;2.40;;;19.70;83.70;;;;;;5060415;28;20043;-69
2021/08/11 03:03:45;;;;;;;7.00;2.85;;;19.70;83.80;;;;;;5033702;28;20842;-68
2021/08/11 03:06:11;;;;;;;6.18;2.63;;;19.70;83.90;;;;;;5033967;28;20057;-68
2021/08/11 03:08:37;;;;;;;7.05;2.92;;;19.70;84.00;;;;;;5035476;28;20028;-68
2021/08/11 03:11:03;;;;;;;6.88;2.65;;;19.70;84.10;;;;;;5052694;28;20025;-69
2021/08/11 03:13:29;;;;;;;6.05;2.70;;;19.70;84.20;;;;;;5034075;28;20041;-69
2021/08/11 03:15:55;;;;;;;5.70;2.63;;;19.70;84.20;;;;;;5064281;28;20476;-69
2021/08/11 03:18:20;;;;;;;5.38;2.58;;;19.70;84.30;;;;;;5048960;28;20033;-69
2021/08/11 03:20:46;;;;;;;6.75;3.13;;;19.70;84.30;;;;;;5070221;28;20020;-69
2021/08/11 03:23:15;;;;;;;8.38;2.83;;;19.60;84.30;;;;;;5070244;28;20031;-69
2021/08/11 03:25:41;;;;;;;6.25;2.53;;;19.60;84.40;;;;;;5071070;28;20024;-68
2021/08/11 03:28:09;;;;;;;5.80;2.70;;;19.70;84.50;;;;;;5071506;28;20025;-69
2021/08/11 03:30:36;;;;;;;6.18;2.90;;;19.70;84.60;;;;;;5069176;28;20040;-69
2021/08/11 03:33:02;;;;;;;7.10;3.20;;;19.60;84.50;;;;;;5052907;28;20440;-69
2021/08/11 03:35:28;;;;;;;6.63;3.33;;;19.60;84.60;;;;;;5069712;28;20067;-69
2021/08/11 03:37:53;;;;;;;6.65;2.85;;;19.60;84.60;;;;;;5053611;28;20490;-68
2021/08/11 03:40:19;;;;;;;5.95;2.83;;;19.60;84.60;;;;;;5070927;28;20028;-68
2021/08/11 03:42:44;;;;;;;5.57;2.80;;;19.60;84.70;;;;;;5053645;28;20032;-68
2021/08/11 03:45:11;;;;;;;5.75;2.80;;;19.60;84.70;;;;;;5065505;28;20108;-69
2021/08/11 03:47:42;;;;;;;7.10;3.00;;;19.60;84.70;;;;;;5070608;28;20036;-68
2021/08/11 03:50:16;;;;;;;6.82;2.90;;;19.60;84.80;;;;;;5053361;28;20032;-68
2021/08/11 03:52:42;;;;;;;6.65;3.17;;;19.60;84.70;;;;;;5071346;28;20078;-69
2021/08/11 03:55:08;;;;;;;5.90;2.90;;;19.60;84.70;;;;;;5051658;28;20431;-67
2021/08/11 03:57:34;;;;;;;7.30;3.45;;;19.60;84.70;;;;;;5052792;28;20025;-67
2021/08/11 03:59:59;;;;;;;6.05;2.58;;;19.60;84.70;;;;;;5051857;28;20052;-68
2021/08/11 04:02:25;;;;;;;6.15;3.08;;;19.60;84.70;;;;;;5050552;28;20533;-68
2021/08/11 04:04:50;;;;;;;7.03;3.10;;;19.60;84.60;;;;;;5051166;28;20037;-68
2021/08/11 04:07:16;;;;;;;5.90;2.92;;;19.60;84.60;;;;;;5051804;28;20032;-68
2021/08/11 04:09:41;;;;;;;7.05;2.60;;;19.60;84.70;;;;;;5050703;28;20036;-68
2021/08/11 04:12:07;;;;;;;6.15;2.90;;;19.60;84.80;;;;;;5054225;28;20033;-69
2021/08/11 04:14:33;;;;;;;5.88;3.00;;;19.60;84.70;;;;;;5067386;28;20020;-68
2021/08/11 04:16:58;;;;;;;5.82;2.70;;;19.60;84.80;;;;;;5052388;28;20032;-69
2021/08/11 04:19:24;;;;;;;6.97;2.75;;;19.60;84.90;;;;;;5051035;28;20021;-68
2021/08/11 04:21:49;;;;;;;5.75;2.70;;;19.60;84.90;;;;;;5072242;28;20095;-69
2021/08/11 04:24:15;;;;;;;5.97;2.97;;;19.60;85.00;;;;;;5067534;28;20049;-68
2021/08/11 04:26:40;;;;;;;6.05;2.70;;;19.60;85.00;;;;;;5050377;28;20065;-68
2021/08/11 04:29:06;;;;;;;6.82;2.85;;;19.60;85.10;;;;;;5033047;28;20043;-67
2021/08/11 04:31:31;;;;;;;6.88;2.88;;;19.60;85.10;;;;;;5050094;28;20067;-68
2021/08/11 04:33:57;;;;;;;6.00;2.55;;;19.60;85.10;;;;;;5050959;28;20486;-68
2021/08/11 04:36:22;;;;;;;6.57;3.00;;;19.60;85.10;;;;;;5050322;28;20033;-68
2021/08/11 04:38:48;;;;;;;6.57;2.95;;;19.60;85.10;;;;;;5051507;28;20093;-67
2021/08/11 04:41:14;;;;;;;8.25;2.90;;;19.60;85.10;;;;;;5055665;28;20397;-68
2021/08/11 04:43:40;;;;;;;14.82;3.33;;;19.60;85.20;;;;;;5069537;28;20025;-69
2021/08/11 04:46:05;;;;;;;7.63;2.95;;;19.70;85.60;;;;;;5069941;28;20546;-66
2021/08/11 04:48:31;;;;;;;10.05;4.28;;;19.70;85.60;;;;;;5070551;28;20111;-66
2021/08/11 04:50:57;;;;;;;11.95;5.50;;;19.70;86.00;;;;;;5053453;28;20047;-67
2021/08/11 04:53:23;;;;;;;11.43;5.07;;;19.70;86.30;;;;;;5044609;28;20036;-67
2021/08/11 04:55:49;;;;;;;8.95;3.80;;;19.60;86.30;;;;;;5046778;28;20166;-69
2021/08/11 04:58:15;;;;;;;10.73;4.00;;;19.70;86.40;;;;;;5050233;28;20021;-69
2021/08/11 05:00:40;;;;;;;8.82;3.50;;;19.70;86.00;;;;;;5046348;28;20521;-69
2021/08/11 05:03:06;;;;;;;9.45;3.72;;;19.80;85.80;;;;;;5047929;28;20496;-69
2021/08/11 05:05:31;;;;;;;8.55;3.90;;;19.80;85.50;;;;;;5043911;28;20025;-69
2021/08/11 05:07:57;;;;;;;9.65;4.25;;;19.90;85.60;;;;;;5028814;28;20387;-65
2021/08/11 05:10:23;;;;;;;10.23;5.15;;;19.80;85.50;;;;;;5029030;28;20543;-69
2021/08/11 05:12:49;;;;;;;10.02;4.55;;;19.80;85.50;;;;;;5045511;28;20044;-67
2021/08/11 05:15:14;;;;;;;11.27;5.40;;;19.80;85.60;;;;;;5044334;28;20035;-64
2021/08/11 05:17:40;;;;;;;11.18;5.95;;;19.80;85.80;;;;;;5027337;28;20027;-67
2021/08/11 05:20:06;;;;;;;12.20;6.07;;;19.80;85.80;;;;;;5027663;28;20371;-66
2021/08/11 05:22:32;;;;;;;12.32;6.13;;;19.80;85.70;;;;;;5055938;28;20137;-66
2021/08/11 05:24:57;;;;;;;12.02;6.30;;;19.80;85.80;;;;;;5048004;28;20033;-67
2021/08/11 05:27:24;;;;;;;12.45;6.72;;;19.80;85.80;;;;;;5064788;28;20037;-67
2021/08/11 05:29:50;;;;;;;11.95;6.75;;;19.70;85.90;;;;;;5047737;28;20028;-68
2021/08/11 05:34:56;;;;;;;11.48;7.10;;;19.80;85.80;;;;;;3878320;22;20558;-68
2021/08/11 05:37:21;;;;;;;11.00;6.57;;;19.80;85.80;;;;;;5042383;28;20511;-67
2021/08/11 05:39:47;;;;;;;11.25;6.15;;;19.80;86.50;;;;;;5036735;28;20624;-68
2021/08/11 05:42:13;;;;;;;10.32;5.90;;;19.80;86.00;;;;;;5018497;28;20439;-66
2021/08/11 05:44:38;;;;;;;10.80;5.75;;;19.80;86.00;;;;;;5039203;28;20020;-67
2021/08/11 05:47:04;;;;;;;10.93;5.68;;;19.70;86.10;;;;;;5045645;28;20039;-67
2021/08/11 05:49:31;;;;;;;11.60;6.57;;;19.80;86.50;;;;;;5053437;28;20025;-66
2021/08/11 05:51:57;;;;;;;14.30;6.88;;;19.80;86.20;;;;;;5048394;28;20390;-67
2021/08/11 05:54:22;;;;;;;12.80;6.82;;;19.80;86.10;;;;;;5043998;28;20037;-65
2021/08/11 05:56:48;;;;;;;12.43;6.90;;;19.80;86.00;;;;;;5053292;28;20025;-68
2021/08/11 05:59:13;;;;;;;12.00;6.68;;;19.80;86.20;;;;;;5053730;28;20099;-68
2021/08/11 06:01:39;;;;;;;14.00;6.57;;;19.80;86.30;;;;;;5035643;28;20494;-68
2021/08/11 06:04:04;;;;;;;9.85;5.50;;;19.80;86.40;;;;;;5052335;28;20035;-67
2021/08/11 06:06:31;;;;;;;11.05;6.47;;;19.80;86.50;;;;;;5035275;28;20029;-68
2021/08/11 06:08:56;;;;;;;11.68;6.25;;;19.70;86.60;;;;;;5052097;28;20031;-72
2021/08/11 06:11:22;;;;;;;10.82;6.32;;;19.80;86.60;;;;;;5014356;28;20025;-71
2021/08/11 06:13:48;;;;;;;13.63;7.57;;;19.80;86.90;;;;;;5005827;28;20060;-68
2021/08/11 06:16:13;;;;;;;15.13;8.20;;;19.80;87.00;;;;;;5006083;28;20063;-71
2021/08/11 06:18:39;;;;;;;14.77;8.32;;;19.80;86.90;;;;;;5034004;28;20044;-68
2021/08/11 06:21:05;;;;;;;13.30;8.38;;;19.80;86.90;;;;;;5036692;28;20486;-69
2021/08/11 06:23:30;;;;;;;13.68;7.85;;;19.90;87.00;;;;;;5033420;28;20454;-68
2021/08/11 06:25:56;;;;;;;16.77;8.85;;;19.80;86.90;;;;;;5036854;28;20374;-68
2021/08/11 06:28:22;;;;;;;15.43;7.95;;;19.90;86.90;;;;;;5036986;28;20025;-66
2021/08/11 06:30:47;;;;;;;16.70;8.15;;;19.80;86.90;;;;;;5050401;28;20025;-70
2021/08/11 06:33:13;;;;;;;12.35;7.22;;;19.90;86.80;;;;;;5043112;28;20025;-67
2021/08/11 06:35:38;;;;;;;13.98;7.78;;;19.90;86.70;;;;;;5044149;28;20029;-69
2021/08/11 06:38:04;;;;;;;14.27;7.20;;;19.90;86.50;;;;;;5038594;28;20589;-68
2021/08/11 06:40:30;;;;;;;14.65;7.97;;;19.90;86.80;;;;;;5025512;28;20024;-68
2021/08/11 06:42:57;;;;;;;16.67;8.45;;;19.90;86.70;;;;;;5023614;28;20489;-68
2021/08/11 06:45:22;;;;;;;18.35;8.05;;;19.90;86.90;;;;;;5027880;28;20032;-68
2021/08/11 06:47:48;;;;;;;17.60;8.18;;;19.90;87.30;;;;;;5046016;28;20037;-68
2021/08/11 06:50:14;;;;;;;13.75;7.60;;;19.90;87.00;;;;;;5028329;28;20029;-68
2021/08/11 06:52:40;;;;;;;14.48;8.05;;;19.90;87.10;;;;;;5046237;28;20449;-68
2021/08/11 06:55:08;;;;;;;15.60;7.80;;;19.80;87.00;;;;;;5027688;28;20025;-68
2021/08/11 06:57:34;;;;;;;13.77;8.07;;;19.90;87.10;;;;;;5046255;28;20629;-68
2021/08/11 06:59:59;;;;;;;15.82;8.63;;;19.90;87.10;;;;;;5028227;28;20025;-68
2021/08/11 07:02:25;;;;;;;14.75;8.05;;;19.90;87.10;;;;;;5028222;28;20025;-68
2021/08/11 07:04:51;;;;;;;16.90;8.85;;;19.90;86.90;;;;;;5020031;28;20680;-68
2021/08/11 07:07:17;;;;;;;21.17;10.02;;;19.90;86.80;;;;;;5014543;28;20113;-69
2021/08/11 07:09:43;;;;;;;17.45;8.40;;;20.00;86.30;;;;;;5031964;28;20060;-68
2021/08/11 07:12:09;;;;;;;18.58;9.85;;;20.10;85.90;;;;;;5025334;28;20026;-68
2021/08/11 07:14:34;;;;;;;17.55;9.85;;;20.10;85.90;;;;;;5025660;28;20021;-67
2021/08/11 07:17:00;;;;;;;15.50;8.77;;;20.10;86.00;;;;;;5022727;28;20044;-68
2021/08/11 07:19:25;;;;;;;16.63;8.82;;;20.10;85.60;;;;;;5014649;28;20109;-68
2021/08/11 07:21:51;;;;;;;18.55;10.45;;;20.10;85.30;;;;;;5005878;28;20483;-67
2021/08/11 07:24:17;;;;;;;15.63;9.85;;;20.10;85.30;;;;;;5005497;28;20108;-68
2021/08/11 07:26:42;;;;;;;17.73;9.88;;;20.30;84.80;;;;;;5005636;28;20040;-68
2021/08/11 07:29:08;;;;;;;18.63;11.52;;;20.30;84.40;;;;;;5010052;28;20106;-68
2021/08/11 07:31:33;;;;;;;17.33;10.90;;;20.40;84.10;;;;;;5011539;28;20273;-69
2021/08/11 07:33:59;;;;;;;17.02;9.77;;;20.40;84.10;;;;;;5024840;28;20422;-68
2021/08/11 07:36:24;;;;;;;19.02;10.50;;;20.30;84.30;;;;;;5025765;28;20033;-69
2021/08/11 07:38:50;;;;;;;16.75;10.02;;;20.30;84.30;;;;;;5046116;28;20075;-68
2021/08/11 07:41:15;;;;;;;19.20;11.20;;;20.30;84.10;;;;;;5008743;28;20041;-68
2021/08/11 07:43:41;;;;;;;17.27;9.98;;;20.30;84.00;;;;;;5025400;28;20040;-67
2021/08/11 07:46:07;;;;;;;18.10;10.27;;;20.30;84.10;;;;;;5016704;28;20486;-69
2021/08/11 07:48:33;;;;;;;18.48;10.88;;;20.40;84.10;;;;;;5025707;28;20471;-69
2021/08/11 07:50:59;;;;;;;15.25;9.57;;;20.30;83.80;;;;;;5025697;28;20033;-68
2021/08/11 07:53:24;;;;;;;15.73;9.77;;;20.30;83.90;;;;;;5005642;28;20033;-68
2021/08/11 07:55:50;;;;;;;14.95;8.93;;;20.40;83.60;;;;;;5004537;28;20018;-69
2021/08/11 07:58:15;;;;;;;17.45;11.10;;;20.40;83.50;;;;;;5016568;28;20034;-68
2021/08/11 08:00:41;;;;;;;15.23;10.50;;;20.40;83.00;;;;;;5006375;28;20025;-70
2021/08/11 08:03:06;;;;;;;16.30;9.57;;;20.60;82.60;;;;;;5019937;28;21026;-68
2021/08/11 08:05:32;;;;;;;16.15;9.98;;;20.70;82.10;;;;;;5025584;28;20056;-68
2021/08/11 08:07:59;;;;;;;14.68;9.23;;;20.80;81.60;;;;;;5023592;28;20433;-70
2021/08/11 08:10:25;;;;;;;15.77;10.25;;;20.90;80.70;;;;;;5022658;28;20040;-67
2021/08/11 08:12:50;;;;;;;15.02;9.55;;;21.10;80.30;;;;;;5020457;28;20436;-70
2021/08/11 08:15:16;;;;;;;13.70;9.25;;;21.20;80.00;;;;;;5024972;28;20022;-69
2021/08/11 08:17:42;;;;;;;13.50;8.77;;;21.30;78.90;;;;;;5025184;28;20030;-70
2021/08/11 08:20:10;;;;;;;12.50;8.15;;;21.40;78.40;;;;;;5024986;28;20054;-69
2021/08/11 08:22:36;;;;;;;16.33;9.43;;;21.50;78.10;;;;;;5025213;28;20399;-70
2021/08/11 08:25:03;;;;;;;13.13;8.95;;;21.40;77.80;;;;;;5015850;28;20047;-69
2021/08/11 08:27:29;;;;;;;14.45;9.93;;;21.50;77.80;;;;;;5022329;28;20029;-69
2021/08/11 08:29:57;;;;;;;14.60;9.73;;;21.60;77.60;;;;;;5038768;28;20032;-70
2021/08/11 08:32:26;;;;;;;13.60;9.27;;;21.60;77.30;;;;;;5029604;28;20115;-68
2021/08/11 08:34:52;;;;;;;13.60;9.55;;;21.70;77.10;;;;;;5045127;28;20037;-69
2021/08/11 08:37:32;;;;;;;13.40;9.70;;;21.70;76.60;;;;;;5027785;28;20030;-69
2021/08/11 08:39:58;;;;;;;13.68;9.95;;;21.80;76.20;;;;;;5020944;28;20116;-68
2021/08/11 08:42:24;;;;;;;14.35;9.00;;;21.80;76.00;;;;;;5016977;28;20221;-69
2021/08/11 08:44:49;;;;;;;12.77;8.93;;;21.90;75.60;;;;;;5020689;28;20411;-69
2021/08/11 08:47:20;;;;;;;13.52;9.18;;;22.00;75.70;;;;;;4997616;28;20037;-68
2021/08/11 08:49:46;;;;;;;13.57;8.73;;;22.00;75.20;;;;;;5025088;28;20029;-69
2021/08/11 08:52:16;;;;;;;12.90;9.13;;;22.10;75.00;;;;;;5024299;28;20540;-69
2021/08/11 08:54:43;;;;;;;13.15;8.85;;;22.10;74.70;;;;;;5024136;28;20036;-69
2021/08/11 08:57:08;;;;;;;14.32;9.65;;;22.10;74.50;;;;;;5004601;28;20386;-69
2021/08/11 08:59:34;;;;;;;13.38;9.05;;;22.20;74.30;;;;;;5026588;28;20116;-69
2021/08/11 09:02:00;;;;;;;12.32;7.93;;;22.20;74.20;;;;;;5023441;28;20476;-68
2021/08/11 09:04:25;;;;;;;11.48;7.82;;;22.20;73.80;;;;;;5006154;28;20033;-68
2021/08/11 09:06:50;;;;;;;12.93;8.40;;;22.10;73.70;;;;;;5023312;28;20136;-69
2021/08/11 09:09:16;;;;;;;15.45;8.68;;;22.30;73.80;;;;;;5016958;28;20052;-68
2021/08/11 09:11:43;;;;;;;14.85;9.02;;;22.30;74.00;;;;;;5018569;28;20472;-69
2021/08/11 09:14:24;;;;;;;12.98;9.13;;;22.30;74.00;;;;;;5009417;28;20026;-68
2021/08/11 09:16:59;;;;;;;15.77;9.85;;;22.30;73.90;;;;;;5027051;28;20406;-68
2021/08/11 09:19:37;;;;;;;13.63;9.20;;;22.30;74.00;;;;;;5027336;28;20095;-68
2021/08/11 09:22:09;;;;;;;14.55;10.00;;;22.30;73.70;;;;;;5046337;28;20531;-70
2021/08/11 09:24:36;;;;;;;15.02;10.38;;;22.40;73.50;;;;;;5009660;28;20044;-69
2021/08/11 09:27:14;;;;;;;16.27;10.25;;;22.40;73.00;;;;;;5012185;28;20068;-68
2021/08/11 09:30:07;;;;;;;14.95;10.07;;;22.40;73.10;;;;;;5013796;28;20029;-69
2021/08/11 09:32:48;;;;;;;13.88;9.25;;;22.40;73.00;;;;;;5011794;28;20040;-69
2021/08/11 09:35:17;;;;;;;12.80;8.63;;;22.50;72.80;;;;;;5018747;28;20409;-68
2021/08/11 09:37:44;;;;;;;18.77;8.27;;;22.60;72.60;;;;;;5032297;28;20155;-67
2021/08/11 09:40:27;;;;;;;14.60;7.30;;;22.60;72.50;;;;;;5025516;28;20025;-66
2021/08/11 09:43:17;;;;;;;11.27;6.78;;;22.60;72.20;;;;;;5032043;28;20432;-67
2021/08/11 09:45:48;;;;;;;10.70;6.13;;;22.60;71.80;;;;;;5026015;28;20022;-67
2021/08/11 09:48:16;;;;;;;11.57;6.32;;;22.70;71.70;;;;;;5026791;28;20025;-66
2021/08/11 09:50:59;;;;;;;10.02;5.72;;;22.70;71.70;;;;;;5026769;28;20103;-66
2021/08/11 09:53:26;;;;;;;12.63;6.57;;;22.60;71.80;;;;;;5026035;28;20474;-65
2021/08/11 09:56:06;;;;;;;10.43;6.47;;;22.60;71.80;;;;;;5027770;28;20542;-68
2021/08/11 09:58:42;;;;;;;11.03;6.07;;;22.60;71.70;;;;;;5027131;28;20108;-66
2021/08/11 10:01:14;;;;;;;12.50;6.00;;;22.70;71.70;;;;;;5026384;28;20091;-67
2021/08/11 10:03:56;;;;;;;12.18;6.00;;;22.60;71.70;;;;;;5026502;28;20064;-66
2021/08/11 10:06:32;;;;;;;9.18;5.22;;;22.60;71.70;;;;;;5026393;28;20045;-66
2021/08/11 10:09:17;;;;;;;9.40;5.43;;;22.70;71.50;;;;;;5026339;28;20030;-66
2021/08/11 10:11:47;;;;;;;9.32;5.50;;;22.70;71.50;;;;;;5026008;28;20391;-66
2021/08/11 10:14:14;;;;;;;12.05;5.97;;;22.70;71.60;;;;;;5009961;28;20087;-65
2021/08/11 10:16:41;;;;;;;10.20;5.60;;;22.70;71.40;;;;;;5028024;28;20028;-66
2021/08/11 10:19:09;;;;;;;9.73;5.15;;;22.70;71.20;;;;;;5030252;28;20025;-64
2021/08/11 10:21:49;;;;;;;9.23;5.13;;;22.70;71.30;;;;;;5037398;28;20017;-67
2021/08/11 10:24:15;;;;;;;9.95;5.50;;;22.70;71.40;;;;;;5038216;28;20028;-66
2021/08/11 10:26:42;;;;;;;9.65;5.10;;;22.70;71.20;;;;;;5037569;28;20548;-67
2021/08/11 10:29:08;;;;;;;10.77;5.30;;;22.70;71.10;;;;;;5035611;28;20022;-67
2021/08/11 10:31:35;;;;;;;9.35;5.30;;;22.70;71.10;;;;;;5036607;28;20038;-67
2021/08/11 10:34:02;;;;;;;10.05;5.70;;;22.70;71.20;;;;;;5027016;28;20388;-67
2021/08/11 10:36:31;;;;;;;8.55;4.57;;;22.80;71.50;;;;;;5043822;28;20036;-66
2021/08/11 10:38:59;;;;;;;14.98;5.50;;;22.80;71.20;;;;;;5028676;28;20028;-67
2021/08/11 10:41:30;;;;;;;12.55;5.05;;;22.80;71.00;;;;;;5006849;28;20067;-68
2021/08/11 10:43:57;;;;;;;9.10;5.03;;;22.80;71.00;;;;;;5007546;28;20029;-68
2021/08/11 10:46:31;;;;;;;8.05;4.72;;;22.80;71.50;;;;;;5026156;28;20061;-68
2021/08/11 10:49:05;;;;;;;7.60;4.50;;;22.80;71.40;;;;;;5008588;28;20030;-67
2021/08/11 10:51:38;;;;;;;9.88;4.90;;;22.70;71.40;;;;;;5008573;28;20030;-67
2021/08/11 10:54:06;;;;;;;8.68;5.03;;;22.70;71.40;;;;;;5008370;28;20025;-67
2021/08/11 10:56:41;;;;;;;7.93;5.07;;;22.70;71.30;;;;;;5008716;28;20026;-67
2021/08/11 10:59:28;;;;;;;9.65;5.07;;;22.70;71.30;;;;;;5004907;28;20026;-66
2021/08/11 11:01:54;;;;;;;9.20;5.10;;;22.70;72.00;;;;;;4988958;28;20022;-67
2021/08/11 11:04:39;;;;;;;9.52;4.82;;;22.70;71.40;;;;;;5006233;28;20022;-68
2021/08/11 11:07:11;;;;;;;8.07;4.25;;;22.70;71.20;;;;;;4988782;28;20026;-67
2021/08/11 11:09:38;;;;;;;10.95;5.45;;;22.80;71.50;;;;;;4989268;28;20383;-67
2021/08/11 11:12:29;;;;;;;8.10;4.32;;;22.80;72.10;;;;;;4988905;28;20038;-67
2021/08/11 11:14:57;;;;;;;8.60;4.13;;;22.70;71.80;;;;;;4988109;28;20023;-67
2021/08/11 11:18:05;;;;;;;8.07;4.07;;;22.80;71.70;;;;;;4988622;28;20266;-67
2021/08/11 11:20:30;;;;;;;10.65;4.78;;;22.80;71.10;;;;;;4996461;28;20124;-67
2021/08/11 11:22:57;;;;;;;9.50;4.53;;;22.70;71.20;;;;;;5025594;28;20155;-66
2021/08/11 11:25:56;;;;;;;9.68;4.38;;;22.70;71.90;;;;;;5025695;28;20029;-66
2021/08/11 11:29:00;;;;;;;10.63;4.30;;;22.80;71.60;;;;;;5025522;28;20132;-66
2021/08/11 11:31:35;;;;;;;8.38;3.90;;;22.80;71.40;;;;;;5005007;28;20029;-66
2021/08/11 11:34:23;;;;;;;10.73;4.55;;;22.80;71.40;;;;;;5022600;28;20047;-67
2021/08/11 11:37:09;;;;;;;8.52;3.92;;;22.80;71.40;;;;;;5011954;28;20029;-67
2021/08/11 11:39:54;;;;;;;8.45;4.22;;;22.80;71.30;;;;;;5002699;28;20087;-68
2021/08/11 11:42:25;;;;;;;8.25;4.43;;;22.80;70.90;;;;;;5030181;28;20532;-68
2021/08/11 11:44:57;;;;;;;6.82;3.88;;;22.80;70.80;;;;;;5004333;28;20105;-68
2021/08/11 11:47:35;;;;;;;8.70;4.20;;;22.80;70.90;;;;;;5029721;28;20029;-68
2021/08/11 11:50:22;;;;;;;8.90;4.20;;;22.80;71.00;;;;;;5013221;28;20143;-68
2021/08/11 11:52:56;;;;;;;6.82;4.10;;;22.70;70.90;;;;;;5030231;28;20025;-68
2021/08/11 11:55:38;;;;;;;8.27;3.70;;;22.70;70.90;;;;;;5030936;28;20036;-68
2021/08/11 11:58:13;;;;;;;7.40;4.07;;;22.70;71.10;;;;;;5030469;28;20013;-68
2021/08/11 12:00:40;;;;;;;7.50;3.97;;;22.70;71.20;;;;;;5013419;28;20017;-68
2021/08/11 12:03:05;;;;;;;16.38;3.90;;;22.70;71.10;;;;;;5012763;28;20025;-68
2021/08/11 12:05:52;;;;;;;8.32;4.38;;;22.70;71.40;;;;;;5031174;28;20367;-68
2021/08/11 12:08:19;;;;;;;8.30;3.80;;;22.70;71.00;;;;;;5048098;28;20100;-68
2021/08/11 12:10:50;;;;;;;9.82;3.83;;;22.70;71.00;;;;;;5032137;28;20076;-67
2021/08/11 12:13:17;;;;;;;7.05;4.20;;;22.70;71.20;;;;;;4993789;28;20407;-67
2021/08/11 12:15:50;;;;;;;7.18;3.63;;;22.80;71.70;;;;;;5013940;28;20030;-67
2021/08/11 12:18:24;;;;;;;5.47;3.47;;;22.70;71.50;;;;;;5029021;28;20060;-66
2021/08/11 12:20:54;;;;;;;6.55;3.38;;;22.80;71.70;;;;;;5045734;28;20438;-67
2021/08/11 12:23:27;;;;;;;7.50;3.83;;;22.70;71.30;;;;;;5031376;28;20620;-67
2021/08/11 12:25:58;;;;;;;8.50;3.83;;;22.80;71.50;;;;;;5025982;28;20041;-67
2021/08/11 12:28:32;;;;;;;10.48;4.00;;;22.70;71.40;;;;;;5034156;28;20021;-67
2021/08/11 12:31:11;;;;;;;9.93;4.10;;;22.80;71.40;;;;;;5022204;28;20060;-67
2021/08/11 12:33:42;;;;;;;8.13;4.53;;;22.80;71.30;;;;;;5031118;28;20445;-68
2021/08/11 12:36:20;;;;;;;7.63;3.60;;;22.80;71.10;;;;;;5011956;28;20025;-67
2021/08/11 12:39:17;;;;;;;7.40;3.92;;;22.80;71.10;;;;;;5012606;28;20040;-67
2021/08/11 12:41:56;;;;;;;7.40;3.80;;;22.70;71.00;;;;;;5030582;28;20091;-67
2021/08/11 12:44:27;;;;;;;7.15;3.92;;;22.80;71.10;;;;;;5011155;28;20127;-68
2021/08/11 12:47:03;;;;;;;8.38;3.90;;;22.80;71.30;;;;;;5034431;28;20040;-67
2021/08/11 12:49:29;;;;;;;11.93;5.38;;;22.70;71.30;;;;;;5034785;28;20022;-67
2021/08/11 12:52:03;;;;;;;9.75;4.50;;;22.70;71.30;;;;;;5033645;28;20032;-67
2021/08/11 12:54:29;;;;;;;7.30;4.07;;;22.70;71.40;;;;;;5016144;28;20508;-67
2021/08/11 12:56:58;;;;;;;10.52;4.60;;;22.70;71.20;;;;;;5016166;28;20112;-67